createdAt,value
2019-04-14T00:00:14.257Z,94.89
2019-04-14T00:01:12.974Z,95.51
2019-04-14T00:02:11.536Z,95.7
2019-04-14T00:03:09.014Z,95.51
2019-04-14T00:04:07.614Z,95.03
2019-04-14T00:05:06.179Z,94.93
2019-04-14T00:06:04.881Z,94.65
2019-04-14T00:22:32.163Z,94.84
2019-04-14T00:23:30.409Z,95.41
2019-04-14T00:24:29.092Z,94.84
2019-04-14T00:25:28.259Z,95.6
2019-04-14T00:26:26.931Z,95.79
2019-04-14T00:27:24.267Z,96.17
2019-04-14T00:28:22.915Z,95.75
2019-04-14T00:29:21.722Z,95.89
2019-04-14T00:30:20.810Z,95.89
2019-04-14T00:31:19.465Z,96.6
2019-04-14T00:32:18.226Z,96.88
2019-04-14T00:33:16.912Z,97.55
2019-04-14T00:34:14.207Z,96.98
2019-04-14T00:35:12.807Z,97.03
2019-04-14T00:36:11.449Z,96.36
2019-04-14T00:37:09.972Z,96.65
2019-04-14T00:38:08.542Z,95.89
2019-04-14T00:39:07.518Z,95.79
2019-04-14T00:40:06.182Z,95.51
2019-04-14T00:41:05.132Z,95.98
2019-04-14T00:42:03.755Z,95.84
2019-04-14T00:43:02.715Z,96.45
2019-04-14T00:44:01.280Z,95.7
2019-04-14T00:44:58.759Z,96.74
2019-04-14T00:45:59.672Z,95.98
2019-04-14T00:46:56.164Z,95.51
2019-04-14T00:48:03.101Z,95.79
2019-04-14T00:48:53.898Z,95.6
2019-04-14T00:49:52.992Z,96.5
2019-04-14T00:50:51.709Z,97.36
2019-04-14T00:51:49.634Z,97.45
2019-04-14T00:52:48.025Z,97.55
2019-04-14T00:53:46.684Z,96.69
2019-04-14T00:54:45.642Z,97.45
2019-04-14T00:55:44.327Z,98.02
2019-04-14T00:56:41.977Z,98.12
2019-04-14T00:57:40.530Z,98.97
2019-04-14T00:58:39.260Z,98.4
2019-04-14T00:59:37.962Z,97.5
2019-04-14T01:00:36.600Z,97.31
2019-04-14T01:01:35.305Z,96.84
2019-04-14T01:02:34.013Z,96.55
2019-04-14T01:03:33.020Z,95.89
2019-04-14T01:04:31.602Z,96.45
2019-04-14T01:05:32.593Z,96.74
2019-04-14T01:06:29.311Z,95.98
2019-04-14T01:07:26.589Z,96.74
2019-04-14T01:08:25.367Z,97.03
2019-04-14T01:09:24.064Z,96.98
2019-04-14T01:10:23.490Z,96.88
2019-04-14T01:11:22.217Z,96.84
2019-04-14T01:12:19.834Z,97.03
2019-04-14T01:13:18.376Z,97.03
2019-04-14T01:14:17.020Z,97.22
2019-04-14T01:15:15.819Z,97.22
2019-04-14T01:16:18.718Z,97.27
2019-04-14T01:17:13.410Z,97.17
2019-04-14T01:18:12.419Z,97.45
2019-04-14T01:19:09.846Z,97.31
2019-04-14T01:20:08.397Z,97.5
2019-04-14T01:21:07.148Z,97.12
2019-04-14T01:22:07.342Z,96.45
2019-04-14T01:23:04.606Z,96.08
2019-04-14T01:24:03.276Z,95.89
2019-04-14T01:25:02.297Z,96.36
2019-04-14T01:26:00.688Z,96.55
2019-04-14T01:26:59.521Z,96.36
2019-04-14T01:27:58.188Z,96.36
2019-04-14T01:28:56.789Z,96.55
2019-04-14T01:29:55.704Z,95.98
2019-04-14T01:30:54.450Z,95.79
2019-04-14T01:31:53.544Z,95.6
2019-04-14T01:32:50.803Z,95.6
2019-04-14T01:33:49.465Z,95.32
2019-04-14T01:34:50.685Z,95.98
2019-04-14T01:35:46.756Z,95.79
2019-04-14T01:36:45.449Z,96.26
2019-04-14T01:37:44.165Z,96.36
2019-04-14T01:38:42.850Z,96.26
2019-04-14T01:39:41.473Z,96.45
2019-04-14T01:40:40.195Z,96.55
2019-04-14T01:41:38.873Z,96.55
2019-04-14T01:42:37.706Z,96.93
2019-04-14T01:43:36.403Z,97.31
2019-04-14T01:44:35.167Z,98.45
2019-04-14T01:45:33.789Z,98.69
2019-04-14T01:46:32.996Z,98.21
2019-04-14T01:47:29.873Z,97.74
2019-04-14T01:48:28.409Z,98.17
2019-04-14T01:49:26.969Z,97.97
2019-04-14T01:50:25.645Z,98.02
2019-04-14T01:51:24.535Z,97.31
2019-04-14T01:52:23.169Z,97.03
2019-04-14T01:53:21.560Z,96.93
2019-04-14T01:54:21.315Z,97.69
2019-04-14T01:55:18.698Z,98.02
2019-04-14T01:56:17.279Z,98.07
2019-04-14T01:57:15.824Z,98.07
2019-04-14T01:58:14.478Z,97.78
2019-04-14T01:59:13.239Z,98.31
2019-04-14T02:00:12.035Z,98.97
2019-04-14T02:01:10.592Z,98.69
2019-04-14T02:02:09.694Z,98.69
2019-04-14T02:03:08.441Z,99.26
2019-04-14T02:04:07.297Z,99.07
2019-04-14T02:05:05.962Z,99.16
2019-04-14T02:06:04.462Z,98.31
2019-04-14T02:07:02.024Z,98.55
2019-04-14T02:08:00.572Z,97.88
2019-04-14T02:08:59.220Z,97.88
2019-04-14T02:09:57.845Z,98.07
2019-04-14T02:10:56.590Z,98.17
2019-04-14T02:11:55.290Z,98.45
2019-04-14T02:12:54.275Z,97.83
2019-04-14T02:13:52.870Z,98.97
2019-04-14T02:14:51.607Z,98.59
2019-04-14T02:15:50.612Z,98.93
2019-04-14T02:16:52.536Z,98.36
2019-04-14T02:17:48.026Z,98.07
2019-04-14T02:18:45.376Z,97.88
2019-04-14T02:19:43.949Z,97.5
2019-04-14T02:20:42.671Z,96.74
2019-04-14T02:21:41.293Z,97.03
2019-04-14T02:22:39.846Z,97.12
2019-04-14T02:23:38.646Z,96.93
2019-04-14T02:24:37.460Z,97.03
2019-04-14T02:25:36.016Z,96.45
2019-04-14T02:26:35.120Z,96.55
2019-04-14T02:27:33.951Z,96.93
2019-04-14T02:28:31.640Z,97.03
2019-04-14T02:29:30.188Z,96.84
2019-04-14T02:30:36.018Z,96.55
2019-04-14T02:31:52.397Z,95.98
2019-04-14T02:32:56.644Z,96.36
2019-04-14T02:34:47.476Z,97.36
2019-04-14T02:36:45.750Z,98.02
2019-04-14T02:37:54.249Z,98.26
2019-04-14T02:38:47.209Z,97.5
2019-04-14T02:39:45.670Z,98.45
2019-04-14T02:41:46.293Z,97.69
2019-04-14T02:43:37.357Z,97.69
2019-04-14T02:44:35.967Z,98.02
2019-04-14T02:45:42.640Z,98.07
2019-04-14T02:46:38.033Z,97.78
2019-04-14T02:49:34.682Z,98.5
2019-04-14T02:50:22.770Z,98.12
2019-04-14T02:51:25.360Z,98.4
2019-04-14T02:52:27.783Z,98.12
2019-04-14T02:53:23.469Z,98.31
2019-04-14T02:54:22.389Z,97.88
2019-04-14T02:55:15.061Z,97.78
2019-04-14T02:56:21.143Z,97.5
2019-04-14T02:57:29.732Z,97.74
2019-04-14T02:58:18.107Z,97.64
2019-04-14T02:59:11.062Z,97.69
2019-04-14T03:00:16.451Z,97.41
2019-04-14T03:01:14.277Z,98.21
2019-04-14T03:03:08.648Z,97.97
2019-04-14T03:04:03.630Z,97.64
2019-04-14T03:05:01.557Z,98.07
2019-04-14T03:06:05.082Z,98.26
2019-04-14T03:07:04.512Z,97.69
2019-04-14T03:07:59.547Z,97.5
2019-04-14T03:09:28.666Z,96.93
2019-04-14T03:09:52.025Z,96.65
2019-04-14T03:10:53.353Z,96.36
2019-04-14T03:11:50.998Z,96.84
2019-04-14T03:12:57.605Z,96.17
2019-04-14T03:13:50.952Z,95.7
2019-04-14T03:14:53.311Z,96.08
2019-04-14T03:16:51.666Z,95.98
2019-04-14T03:18:43.856Z,95.79
2019-04-14T03:19:54.638Z,96.6
2019-04-14T03:20:39.251Z,97.45
2019-04-14T03:21:39.970Z,97.64
2019-04-14T03:22:42.087Z,98.59
2019-04-14T03:23:40.131Z,98.59
2019-04-14T03:24:33.554Z,98.79
2019-04-14T03:25:27.531Z,98.79
2019-04-14T03:26:33.552Z,98.79
2019-04-14T03:27:39.611Z,98.5
2019-04-14T03:28:37.641Z,98.4
2019-04-14T03:29:34.534Z,99.16
2019-04-14T03:30:56.701Z,98.5
2019-04-14T03:31:49.253Z,98.79
2019-04-14T03:33:04.314Z,98.79
2019-04-14T03:33:47.736Z,98.79
2019-04-14T03:35:50.495Z,99.44
2019-04-14T03:36:57.629Z,99.44
2019-04-14T03:38:24.194Z,98.79
2019-04-14T03:39:14.813Z,99.16
2019-04-14T03:40:17.775Z,99.16
2019-04-14T03:42:19.571Z,98.12
2019-04-14T03:43:18.155Z,98.4
2019-04-14T03:44:09.412Z,97.83
2019-04-14T03:45:14.011Z,98.31
2019-04-14T03:48:33.555Z,98.4
2019-04-14T03:51:00.158Z,99.16
2019-04-14T03:51:57.076Z,98.79
2019-04-14T03:53:05.508Z,99.54
2019-04-14T03:53:51.774Z,99.44
2019-04-14T03:54:49.922Z,99.44
2019-04-14T03:55:36.951Z,99.35
2019-04-14T03:56:27.574Z,99.44
2019-04-14T03:57:27.903Z,99.73
2019-04-14T03:58:24.719Z,99.99
2019-04-14T03:59:24.001Z,99.99
2019-04-14T04:00:22.363Z,99.99
2019-04-14T04:01:21.497Z,99.35
2019-04-14T04:02:20.354Z,99.44
2019-04-14T04:03:17.997Z,99.64
2019-04-14T04:04:16.589Z,98.69
2019-04-14T04:05:15.170Z,99.64
2019-04-14T04:06:13.987Z,99.92
2019-04-14T04:07:12.496Z,99.99
2019-04-14T04:08:11.461Z,99.99
2019-04-14T04:09:10.444Z,99.99
2019-04-14T04:10:09.229Z,99.83
2019-04-14T04:11:06.515Z,99.64
2019-04-14T04:12:05.305Z,99.73
2019-04-14T04:13:04.072Z,99.99
2019-04-14T04:14:03.124Z,99.73
2019-04-14T04:15:01.923Z,99.64
2019-04-14T04:16:00.466Z,99.54
2019-04-14T04:16:59.351Z,99.83
2019-04-14T04:17:58.012Z,99.83
2019-04-14T04:19:02.273Z,99.99
2019-04-14T04:19:54.172Z,99.54
2019-04-14T04:20:52.759Z,99.64
2019-04-14T04:21:51.610Z,99.16
2019-04-14T04:22:50.238Z,99.16
2019-04-14T04:23:49.012Z,99.26
2019-04-14T04:24:47.664Z,99.16
2019-04-14T04:25:46.556Z,99.64
2019-04-14T04:26:45.045Z,99.26
2019-04-14T04:27:44.008Z,99.44
2019-04-14T04:28:42.842Z,99.44
2019-04-14T04:29:41.682Z,99.54
2019-04-14T04:30:40.466Z,99.54
2019-04-14T04:31:38.056Z,99.99
2019-04-14T04:32:36.668Z,99.99
2019-04-14T04:33:35.248Z,99.99
2019-04-14T04:34:33.902Z,99.99
2019-04-14T04:35:32.568Z,99.99
2019-04-14T04:36:31.275Z,99.99
2019-04-14T04:37:30.065Z,99.99
2019-04-14T04:38:29.067Z,99.99
2019-04-14T04:39:27.970Z,99.99
2019-04-14T04:40:26.752Z,99.99
2019-04-14T04:41:25.334Z,99.54
2019-04-14T04:42:22.845Z,99.26
2019-04-14T04:43:21.412Z,98.79
2019-04-14T04:44:20.224Z,98.97
2019-04-14T04:45:19.141Z,98.88
2019-04-14T04:46:17.702Z,98.79
2019-04-14T04:47:16.630Z,98.79
2019-04-14T04:48:15.197Z,98.74
2019-04-14T04:49:18.053Z,97.97
2019-04-14T04:51:55.027Z,98.59
2019-04-14T04:52:52.493Z,98.97
2019-04-14T04:53:51.426Z,98.88
2019-04-14T04:54:50.049Z,98.4
2019-04-14T04:55:48.624Z,98.4
2019-04-14T04:56:47.331Z,98.97
2019-04-14T04:57:46.022Z,99.35
2019-04-14T04:58:45.572Z,99.44
2019-04-14T04:59:43.111Z,98.59
2019-04-14T05:00:41.745Z,98.59
2019-04-14T05:01:40.748Z,98.97
2019-04-14T05:02:39.552Z,98.21
2019-04-14T05:03:38.259Z,98.97
2019-04-14T05:04:35.901Z,98.31
2019-04-14T05:05:34.453Z,97.92
2019-04-14T05:06:33.057Z,98.97
2019-04-14T05:07:31.727Z,99.16
2019-04-14T05:08:30.445Z,98.5
2019-04-14T05:09:29.559Z,98.31
2019-04-14T05:12:09.115Z,97.83
2019-04-14T05:13:07.742Z,98.31
2019-04-14T05:14:06.524Z,97.83
2019-04-14T05:15:05.302Z,99.16
2019-04-14T05:16:04.170Z,98.4
2019-04-14T05:17:02.172Z,98.97
2019-04-14T05:18:00.747Z,98.4
2019-04-14T05:19:11.829Z,98.97
2019-04-14T05:20:57.452Z,99.73
2019-04-14T05:21:56.005Z,99.26
2019-04-14T05:22:55.007Z,99.35
2019-04-14T05:23:53.795Z,98.5
2019-04-14T05:24:52.779Z,98.02
2019-04-14T05:25:50.124Z,97.74
2019-04-14T05:26:48.666Z,98.02
2019-04-14T05:27:47.454Z,97.27
2019-04-14T05:28:46.099Z,97.64
2019-04-14T05:29:45.044Z,97.45
2019-04-14T05:30:43.607Z,97.17
2019-04-14T05:31:42.540Z,97.12
2019-04-14T05:34:22.393Z,97.07
2019-04-14T05:35:20.956Z,97.07
2019-04-14T05:38:42.829Z,97.17
2019-04-14T05:39:41.834Z,97.07
2019-04-14T05:40:40.699Z,97.17
2019-04-14T05:41:38.056Z,96.88
2019-04-14T05:42:36.595Z,96.79
2019-04-14T05:43:43.242Z,97.07
2019-04-14T05:44:34.161Z,96.69
2019-04-14T05:45:32.784Z,97.17
2019-04-14T05:46:31.676Z,96.84
2019-04-14T05:47:30.515Z,96.31
2019-04-14T05:48:29.357Z,96.36
2019-04-14T05:49:35.192Z,96.79
2019-04-14T05:50:25.653Z,97.07
2019-04-14T05:51:24.826Z,97.45
2019-04-14T05:52:23.039Z,97.92
2019-04-14T05:53:21.820Z,98.31
2019-04-14T05:54:20.628Z,98.31
2019-04-14T05:55:19.781Z,98.21
2019-04-14T05:56:18.528Z,97.27
2019-04-14T05:57:16.155Z,97.45
2019-04-14T06:02:11.541Z,95.98
2019-04-14T06:03:10.292Z,96.41
2019-04-14T06:04:09.428Z,96.26
2019-04-14T06:05:10.016Z,96.98
2019-04-14T06:06:07.981Z,96.69
2019-04-14T06:07:06.971Z,96.31
2019-04-14T06:08:07.227Z,96.79
2019-04-14T06:09:08.217Z,96.98
2019-04-14T06:10:06.878Z,96.69
2019-04-14T06:11:05.936Z,96.69
2019-04-14T06:12:04.459Z,96.69
2019-04-14T06:13:03.047Z,96.88
2019-04-14T06:14:01.703Z,97.07
2019-04-14T06:15:00.265Z,97.12
2019-04-14T06:15:58.899Z,96.93
2019-04-14T06:16:57.821Z,95.79
2019-04-14T06:17:56.383Z,95.6
2019-04-14T06:18:55.103Z,95.51
2019-04-14T06:19:53.633Z,95.6
2019-04-14T06:20:52.279Z,94.46
2019-04-14T06:21:50.826Z,93.89
2019-04-14T06:22:49.355Z,94.84
2019-04-14T06:23:47.928Z,94.56
2019-04-14T06:24:46.552Z,94.74
2019-04-14T06:25:45.300Z,94.46
2019-04-14T06:26:43.896Z,94.84
2019-04-14T06:27:42.575Z,94.65
2019-04-14T06:28:41.266Z,94.27
2019-04-14T06:29:39.974Z,94.84
2019-04-14T06:30:38.511Z,94.74
2019-04-14T06:31:37.063Z,94.74
2019-04-14T06:32:35.604Z,94.56
2019-04-14T06:33:34.141Z,94.84
2019-04-14T06:34:32.690Z,94.7
2019-04-14T06:35:31.434Z,94.65
2019-04-14T06:36:30.086Z,94.46
2019-04-14T06:37:28.662Z,94.18
2019-04-14T06:38:27.410Z,94.46
2019-04-14T06:39:26.144Z,93.89
2019-04-14T06:40:24.681Z,93.6
2019-04-14T06:41:23.294Z,93.23
2019-04-14T06:42:21.990Z,92.66
2019-04-14T06:43:20.566Z,93.23
2019-04-14T06:44:19.323Z,93.32
2019-04-14T06:45:17.932Z,93.23
2019-04-14T06:46:16.482Z,92.94
2019-04-14T06:47:15.069Z,92.56
2019-04-14T06:48:13.651Z,92.85
2019-04-14T06:49:12.215Z,92.75
2019-04-14T06:50:10.784Z,91.99
2019-04-14T06:51:09.324Z,92.85
2019-04-14T06:52:07.872Z,93.23
2019-04-14T06:53:06.449Z,93.04
2019-04-14T06:54:04.999Z,93.23
2019-04-14T06:55:03.624Z,93.23
2019-04-14T06:56:02.132Z,92.85
2019-04-14T06:57:00.812Z,92.66
2019-04-14T06:57:59.481Z,92.94
2019-04-14T06:58:58.296Z,93.6
2019-04-14T06:59:57.000Z,93.6
2019-04-14T07:00:55.487Z,93.13
2019-04-14T07:01:54.100Z,93.04
2019-04-14T07:02:52.705Z,93.7
2019-04-14T07:03:51.591Z,92.37
2019-04-14T07:04:50.207Z,92.18
2019-04-14T07:05:48.765Z,92.51
2019-04-14T07:06:47.486Z,91.75
2019-04-14T07:07:56.354Z,91.61
2019-04-14T07:08:44.818Z,91.56
2019-04-14T07:09:43.400Z,92.03
2019-04-14T07:10:42.106Z,91.85
2019-04-14T07:11:40.686Z,91.47
2019-04-14T07:12:39.533Z,91.66
2019-04-14T07:13:39.969Z,90.99
2019-04-14T07:14:36.830Z,90.33
2019-04-14T07:15:35.644Z,90.04
2019-04-14T07:16:34.236Z,90.42
2019-04-14T07:17:32.828Z,90.42
2019-04-14T07:18:31.590Z,90.04
2019-04-14T07:19:30.239Z,89.66
2019-04-14T07:20:28.778Z,89.75
2019-04-14T07:21:27.301Z,89.66
2019-04-14T07:22:25.816Z,89.14
2019-04-14T07:23:24.383Z,88.85
2019-04-14T07:24:23.060Z,87.52
2019-04-14T07:25:21.820Z,87.52
2019-04-14T07:26:20.435Z,86.57
2019-04-14T07:27:19.146Z,86.66
2019-04-14T07:28:17.845Z,86.47
2019-04-14T07:29:16.846Z,86.57
2019-04-14T07:30:15.483Z,87.04
2019-04-14T07:31:14.199Z,86.66
2019-04-14T07:32:12.777Z,86.47
2019-04-14T07:33:11.370Z,87.04
2019-04-14T07:34:10.030Z,87.13
2019-04-14T07:35:08.599Z,86.76
2019-04-14T07:36:07.403Z,87.04
2019-04-14T07:37:06.047Z,87.8
2019-04-14T07:38:04.805Z,86.57
2019-04-14T07:39:04.281Z,87.04
2019-04-14T07:40:03.028Z,86.94
2019-04-14T07:41:01.824Z,86.57
2019-04-14T07:42:00.363Z,86.66
2019-04-14T07:42:59.056Z,86.66
2019-04-14T07:43:57.929Z,86.66
2019-04-14T07:44:56.510Z,87.04
2019-04-14T07:45:55.127Z,87.57
2019-04-14T07:46:54.023Z,88.37
2019-04-14T07:47:52.557Z,87.52
2019-04-14T07:48:51.187Z,87.47
2019-04-14T07:49:49.831Z,87.32
2019-04-14T07:50:48.638Z,87.23
2019-04-14T07:51:47.196Z,87.13
2019-04-14T07:52:45.820Z,87.47
2019-04-14T07:53:44.368Z,87.32
2019-04-14T07:54:42.950Z,87.04
2019-04-14T07:55:41.810Z,86.99
2019-04-14T07:56:40.400Z,87.76
2019-04-14T07:57:39.032Z,87.95
2019-04-14T07:58:37.732Z,88.37
2019-04-14T07:59:36.348Z,88.13
2019-04-14T08:00:34.893Z,87.9
2019-04-14T08:01:33.469Z,88.23
2019-04-14T08:02:32.039Z,88.18
2019-04-14T08:03:30.597Z,89
2019-04-14T08:04:29.417Z,88.13
2019-04-14T08:05:27.971Z,87.9
2019-04-14T08:06:26.521Z,87.9
2019-04-14T08:07:25.202Z,87.9
2019-04-14T08:08:23.785Z,88.09
2019-04-14T08:09:22.364Z,87.04
2019-04-14T08:10:21.012Z,86.57
2019-04-14T08:11:19.839Z,85.99
2019-04-14T08:12:18.424Z,86.18
2019-04-14T08:13:17.451Z,86.57
2019-04-14T08:14:15.954Z,86.09
2019-04-14T08:15:14.451Z,85.52
2019-04-14T08:16:13.002Z,85.42
2019-04-14T08:17:11.663Z,85.52
2019-04-14T08:18:10.187Z,85.42
2019-04-14T08:19:08.749Z,85.9
2019-04-14T08:20:07.409Z,85.42
2019-04-14T08:21:05.953Z,85.24
2019-04-14T08:22:04.471Z,84.42
2019-04-14T08:23:02.972Z,84.33
2019-04-14T08:24:01.611Z,84.13
2019-04-14T08:25:00.237Z,83.75
2019-04-14T08:25:58.789Z,82.99
2019-04-14T08:26:57.629Z,83.14
2019-04-14T08:27:56.276Z,83.52
2019-04-14T08:28:54.806Z,83.62
2019-04-14T08:29:53.441Z,83.62
2019-04-14T08:30:52.002Z,83.62
2019-04-14T08:31:50.638Z,83.81
2019-04-14T08:32:49.436Z,83.9
2019-04-14T08:33:48.068Z,84.13
2019-04-14T08:34:46.639Z,84.09
2019-04-14T08:35:45.260Z,84.38
2019-04-14T08:36:43.847Z,84.09
2019-04-14T08:37:42.390Z,83.42
2019-04-14T08:38:40.951Z,83.75
2019-04-14T08:39:39.544Z,83.09
2019-04-14T08:40:38.133Z,83.18
2019-04-14T08:41:36.677Z,83.18
2019-04-14T08:45:15.505Z,84
2019-04-14T08:46:14.123Z,83.71
2019-04-14T08:47:12.678Z,84.19
2019-04-14T08:48:11.365Z,84.13
2019-04-14T08:49:10.212Z,83.37
2019-04-14T08:50:08.751Z,83.65
2019-04-14T08:51:07.564Z,83.56
2019-04-14T08:52:06.456Z,82.9
2019-04-14T08:54:28.993Z,82.14
2019-04-14T08:55:27.560Z,82.99
2019-04-14T08:56:26.124Z,83.14
2019-04-14T08:59:06.535Z,83.65
2019-04-14T09:01:46.736Z,83.42
2019-04-14T09:03:46.415Z,84.19
2019-04-14T09:04:45.013Z,84.47
2019-04-14T09:06:35.012Z,84.42
2019-04-14T09:07:33.632Z,83.85
2019-04-14T09:08:32.206Z,83.37
2019-04-14T09:09:30.806Z,84.23
2019-04-14T09:10:29.513Z,83.28
2019-04-14T09:11:28.271Z,83.09
2019-04-14T09:12:26.801Z,81.6
2019-04-14T09:13:25.450Z,80.75
2019-04-14T09:14:24.088Z,80.55
2019-04-14T09:15:22.591Z,80.18
2019-04-14T09:16:21.262Z,80.36
2019-04-14T09:17:20.080Z,80.55
2019-04-14T09:18:18.704Z,81.17
2019-04-14T09:19:17.439Z,80.79
2019-04-14T09:20:16.260Z,80.02
2019-04-14T09:21:14.939Z,79.27
2019-04-14T09:22:13.601Z,78.98
2019-04-14T09:23:12.304Z,78.5
2019-04-14T09:24:10.871Z,78.98
2019-04-14T09:25:09.486Z,78.35
2019-04-14T09:26:08.012Z,77.87
2019-04-14T09:27:06.559Z,77.2
2019-04-14T09:28:05.455Z,77.2
2019-04-14T09:29:04.220Z,77.3
2019-04-14T09:30:02.766Z,77.69
2019-04-14T09:31:01.375Z,77.87
2019-04-14T09:32:00.008Z,77.74
2019-04-14T09:32:58.819Z,77.74
2019-04-14T09:33:57.516Z,77.55
2019-04-14T09:34:56.154Z,77.93
2019-04-14T09:35:54.739Z,77.74
2019-04-14T09:36:53.473Z,78.12
2019-04-14T09:37:52.136Z,77.93
2019-04-14T09:38:50.663Z,79.41
2019-04-14T09:39:49.206Z,80.08
2019-04-14T09:40:47.987Z,79.13
2019-04-14T09:41:46.548Z,78.85
2019-04-14T09:42:45.201Z,78.37
2019-04-14T09:43:44.158Z,78.27
2019-04-14T09:44:42.574Z,78.46
2019-04-14T09:45:41.156Z,77.74
2019-04-14T09:46:40.123Z,77.74
2019-04-14T09:47:38.825Z,76.92
2019-04-14T09:48:37.557Z,76.79
2019-04-14T09:49:36.271Z,76.5
2019-04-14T09:50:34.897Z,75.93
2019-04-14T09:51:33.636Z,75.49
2019-04-14T09:52:32.252Z,75.11
2019-04-14T09:53:30.848Z,74.44
2019-04-14T09:54:29.610Z,74.16
2019-04-14T09:55:28.584Z,74.44
2019-04-14T09:56:27.098Z,74.54
2019-04-14T09:57:26.411Z,74.92
2019-04-14T09:58:25.474Z,75.01
2019-04-14T09:59:23.860Z,75.11
2019-04-14T10:00:22.595Z,75.11
2019-04-14T10:01:21.263Z,75.49
2019-04-14T10:02:19.887Z,75.87
2019-04-14T10:03:18.561Z,75.3
2019-04-14T10:04:17.340Z,75.2
2019-04-14T10:05:15.966Z,75.3
2019-04-14T10:06:14.610Z,75.3
2019-04-14T10:07:13.312Z,75.01
2019-04-14T10:08:12.070Z,75.3
2019-04-14T10:09:10.617Z,75.4
2019-04-14T10:10:09.249Z,75.2
2019-04-14T10:11:07.956Z,74.19
2019-04-14T10:12:06.491Z,73.81
2019-04-14T10:13:05.088Z,73.81
2019-04-14T10:14:03.893Z,73.14
2019-04-14T10:15:02.481Z,73.05
2019-04-14T10:16:01.018Z,73.05
2019-04-14T10:17:01.275Z,72.57
2019-04-14T10:17:58.231Z,73.01
2019-04-14T10:18:56.729Z,73.05
2019-04-14T10:19:55.327Z,73.39
2019-04-14T10:20:53.984Z,73.62
2019-04-14T10:21:52.547Z,73.33
2019-04-14T10:22:51.222Z,73.14
2019-04-14T10:23:49.850Z,72.76
2019-04-14T10:24:48.416Z,72.25
2019-04-14T10:25:47.040Z,72.25
2019-04-14T10:26:45.723Z,73.21
2019-04-14T10:27:44.343Z,73.01
2019-04-14T10:28:43.047Z,72.72
2019-04-14T10:29:41.906Z,73.39
2019-04-14T10:30:40.542Z,73.39
2019-04-14T10:31:39.090Z,74.25
2019-04-14T10:32:37.848Z,74.44
2019-04-14T10:33:36.469Z,74.44
2019-04-14T10:34:35.131Z,74.35
2019-04-14T10:35:33.905Z,73.62
2019-04-14T10:36:32.460Z,72.67
2019-04-14T10:37:31.332Z,72.19
2019-04-14T10:38:29.813Z,71.91
2019-04-14T10:39:28.387Z,72
2019-04-14T10:40:27.055Z,70.98
2019-04-14T10:41:26.062Z,70.98
2019-04-14T10:42:24.654Z,71.08
2019-04-14T10:43:23.397Z,70.98
2019-04-14T10:44:22.158Z,71.18
2019-04-14T10:45:20.803Z,71.18
2019-04-14T10:46:19.561Z,70.07
2019-04-14T10:47:18.381Z,70.32
2019-04-14T10:48:17.234Z,69.65
2019-04-14T10:49:16.337Z,69.84
2019-04-14T10:50:14.972Z,69.93
2019-04-14T10:51:13.979Z,70.51
2019-04-14T10:52:12.818Z,70.42
2019-04-14T10:53:11.428Z,69.78
2019-04-14T10:54:10.335Z,68.73
2019-04-14T10:55:08.981Z,68
2019-04-14T10:56:07.680Z,67.81
2019-04-14T10:57:06.381Z,67.81
2019-04-14T10:58:05.157Z,68.06
2019-04-14T10:59:03.893Z,68.73
2019-04-14T11:00:02.537Z,69.78
2019-04-14T11:01:01.225Z,69.68
2019-04-14T11:02:00.127Z,70.54
2019-04-14T11:02:58.698Z,69.59
2019-04-14T11:03:57.347Z,69.37
2019-04-14T11:04:55.941Z,69.59
2019-04-14T11:05:54.570Z,69.68
2019-04-14T11:06:53.519Z,69.68
2019-04-14T11:07:52.167Z,69.49
2019-04-14T11:08:50.817Z,70.16
2019-04-14T11:09:49.288Z,70.26
2019-04-14T11:10:47.939Z,69.97
2019-04-14T11:11:46.495Z,70.26
2019-04-14T11:12:45.100Z,70.45
2019-04-14T11:13:43.646Z,69.78
2019-04-14T11:17:22.514Z,70.42
2019-04-14T11:18:21.193Z,70.32
2019-04-14T11:19:19.876Z,70.16
2019-04-14T11:20:18.571Z,68.92
2019-04-14T11:23:03.357Z,69.02
2019-04-14T11:30:01.082Z,68.57
2019-04-14T11:30:59.775Z,69.05
2019-04-14T11:31:58.335Z,69.05
2019-04-14T11:54:19.153Z,67.55
2019-04-14T11:55:17.883Z,67.46
2019-04-14T11:57:57.966Z,66.99
2019-04-14T12:00:20.551Z,66.03
2019-04-14T12:01:19.271Z,66.22
2019-04-14T12:03:42.556Z,65.64
2019-04-14T12:04:41.082Z,66.22
2019-04-14T12:05:39.593Z,67.27
2019-04-14T12:06:38.180Z,67.46
2019-04-14T12:07:36.789Z,67.08
2019-04-14T12:08:35.628Z,66.76
2019-04-14T12:09:34.259Z,67.24
2019-04-14T12:10:32.872Z,68
2019-04-14T12:11:31.611Z,68.19
2019-04-14T12:25:37.925Z,63.29
2019-04-14T12:28:13.563Z,62.52
2019-04-14T12:29:11.877Z,61.76
2019-04-14T12:30:11.031Z,62.04
2019-04-14T12:31:08.991Z,62.14
2019-04-14T12:32:08.532Z,61.95
2019-04-14T12:33:06.426Z,61.47
2019-04-14T12:34:05.160Z,61.38
2019-04-14T12:35:03.841Z,61.22
2019-04-14T12:36:02.601Z,61.57
2019-04-14T12:37:01.127Z,61.95
2019-04-14T12:37:59.978Z,61.76
2019-04-14T12:41:56.693Z,61.47
2019-04-14T12:42:55.497Z,61.41
2019-04-14T12:43:54.440Z,61.31
2019-04-14T13:11:03.282Z,57.46
2019-04-14T13:12:02.111Z,57.75
2019-04-14T13:13:00.957Z,58.32
2019-04-14T13:13:59.909Z,58.7
2019-04-14T13:14:59.209Z,58.41
2019-04-14T13:15:59.769Z,58.61
2019-04-14T13:16:58.734Z,58.8
2019-04-14T13:17:57.576Z,58.7
2019-04-14T13:18:56.777Z,59.08
2019-04-14T13:19:55.599Z,58.95
2019-04-14T13:20:54.528Z,59.27
2019-04-14T13:21:53.377Z,58.95
2019-04-14T13:22:52.101Z,59.05
2019-04-14T13:23:50.820Z,58.51
2019-04-14T13:24:49.530Z,58.98
2019-04-14T13:25:48.364Z,59.27
2019-04-14T13:26:47.151Z,59.27
2019-04-14T13:27:46.332Z,59.66
2019-04-14T13:28:45.096Z,59.66
2019-04-14T13:29:44.225Z,59.84
2019-04-14T13:30:43.331Z,59.84
2019-04-14T13:31:41.763Z,59.84
2019-04-14T13:32:40.478Z,60.04
2019-04-14T13:33:39.241Z,60.23
2019-04-14T13:34:37.917Z,59.72
2019-04-14T13:35:36.489Z,59.91
2019-04-14T13:36:35.196Z,60.58
2019-04-14T13:37:34.090Z,60.01
2019-04-14T13:38:32.741Z,59.34
2019-04-14T13:39:31.505Z,59.91
2019-04-14T13:43:10.847Z,60.36
2019-04-14T13:44:09.518Z,59.88
2019-04-14T13:45:08.426Z,59.81
2019-04-14T13:46:07.266Z,59.53
2019-04-14T13:47:06.088Z,59.63
2019-04-14T13:48:04.800Z,59.24
2019-04-14T13:49:03.382Z,59.44
2019-04-14T13:50:02.041Z,59.81
2019-04-14T13:51:00.887Z,59.72
2019-04-14T13:51:59.594Z,59.94
2019-04-14T13:52:58.440Z,59.81
2019-04-14T13:53:57.120Z,59.91
2019-04-14T13:54:55.734Z,59.94
2019-04-14T13:55:54.389Z,60.13
2019-04-14T13:57:54.162Z,59.81
2019-04-14T13:58:53.106Z,59.94
2019-04-14T13:59:51.959Z,60.2
2019-04-14T14:00:50.573Z,59.81
2019-04-14T14:01:49.235Z,59.66
2019-04-14T14:02:48.002Z,59.94
2019-04-14T14:03:46.665Z,58.7
2019-04-14T14:04:45.503Z,58.51
2019-04-14T14:05:44.384Z,58.51
2019-04-14T14:06:43.082Z,58.12
2019-04-14T14:07:41.959Z,57.84
2019-04-14T14:08:40.584Z,57.55
2019-04-14T14:09:40.007Z,58.12
2019-04-14T14:10:37.831Z,58.61
2019-04-14T14:11:36.483Z,58.32
2019-04-14T14:12:35.105Z,58.41
2019-04-14T14:13:33.792Z,58.48
2019-04-14T14:14:32.469Z,58.86
2019-04-14T14:15:31.142Z,58.86
2019-04-14T14:16:29.870Z,58.76
2019-04-14T14:17:28.479Z,58.76
2019-04-14T14:18:27.081Z,58.86
2019-04-14T14:19:26.061Z,58.67
2019-04-14T14:20:24.670Z,58.38
2019-04-14T14:21:23.499Z,58.86
2019-04-14T14:22:22.203Z,58.48
2019-04-14T14:23:20.802Z,58.58
2019-04-14T14:24:19.686Z,59.02
2019-04-14T14:25:18.278Z,58.83
2019-04-14T14:26:16.922Z,58.58
2019-04-14T14:27:15.541Z,58.86
2019-04-14T14:28:14.082Z,58.58
2019-04-14T14:29:12.821Z,58.45
2019-04-14T14:30:11.479Z,58.93
2019-04-14T14:31:10.286Z,58.45
2019-04-14T14:32:08.926Z,58
2019-04-14T14:33:07.529Z,57.71
2019-04-14T14:34:06.196Z,58
2019-04-14T14:35:04.793Z,58
2019-04-14T14:36:03.400Z,58.29
2019-04-14T14:37:02.185Z,57.62
2019-04-14T14:38:00.721Z,57.62
2019-04-14T14:38:59.396Z,57.24
2019-04-14T14:39:58.211Z,57.33
2019-04-14T14:40:56.812Z,57.53
2019-04-14T14:41:55.599Z,57.62
2019-04-14T14:42:54.230Z,57.9
2019-04-14T14:43:52.865Z,57.71
2019-04-14T14:44:51.441Z,57.9
2019-04-14T14:45:50.023Z,57.9
2019-04-14T14:46:48.576Z,58
2019-04-14T14:47:47.223Z,57.4
2019-04-14T14:48:45.819Z,57.31
2019-04-14T14:49:44.400Z,57.24
2019-04-14T14:50:42.970Z,57.14
2019-04-14T14:51:41.859Z,57.33
2019-04-14T14:52:40.490Z,57.43
2019-04-14T14:53:38.995Z,57.14
2019-04-14T14:54:37.689Z,57.24